sensor_id;sensor_type;location;lat;lon;timestamp;pressure;altitude;pressure_sealevel;temperature;humidity
53719;BME280;39616;48.872;9.390;2023-02-15T00:00:35;99707.81;;;-2.26;100.00
53719;BME280;39616;48.872;9.390;2023-02-15T00:03:06;99703.69;;;-2.29;100.00
53719;BME280;39616;48.872;9.390;2023-02-15T00:05:36;99698.75;;;-2.32;100.00
53719;BME280;39616;48.872;9.390;2023-02-15T00:08:06;99696.72;;;-2.30;100.00
53719;BME280;39616;48.872;9.390;2023-02-15T00:10:37;99702.31;;;-2.25;100.00
53719;BME280;39616;48.872;9.390;2023-02-15T00:13:07;99696.00;;;-2.24;100.00
53719;BME280;39616;48.872;9.390;2023-02-15T00:15:37;99692.34;;;-2.23;100.00
53719;BME280;39616;48.872;9.390;2023-02-15T00:18:08;99690.34;;;-2.21;100.00
53719;BME280;39616;48.872;9.390;2023-02-15T00:20:38;99687.28;;;-2.17;100.00
53719;BME280;39616;48.872;9.390;2023-02-15T00:23:08;99691.97;;;-2.20;100.00
53719;BME280;39616;48.872;9.390;2023-02-15T00:25:38;99687.03;;;-2.23;100.00
53719;BME280;39616;48.872;9.390;2023-02-15T00:28:09;99684.13;;;-2.36;100.00
53719;BME280;39616;48.872;9.390;2023-02-15T00:30:39;99689.72;;;-2.46;100.00
53719;BME280;39616;48.872;9.390;2023-02-15T00:33:09;99696.81;;;-2.61;100.00
53719;BME280;39616;48.872;9.390;2023-02-15T00:35:40;99684.06;;;-2.65;100.00
53719;BME280;39616;48.872;9.390;2023-02-15T00:38:10;99695.88;;;-2.68;100.00
53719;BME280;39616;48.872;9.390;2023-02-15T00:40:40;99692.41;;;-2.69;100.00
53719;BME280;39616;48.872;9.390;2023-02-15T00:43:11;99695.69;;;-2.67;100.00
53719;BME280;39616;48.872;9.390;2023-02-15T00:45:41;99696.97;;;-2.62;100.00
53719;BME280;39616;48.872;9.390;2023-02-15T00:48:11;99688.19;;;-2.63;100.00
53719;BME280;39616;48.872;9.390;2023-02-15T00:50:44;99692.69;;;-2.63;100.00
53719;BME280;39616;48.872;9.390;2023-02-15T00:53:15;99690.72;;;-2.70;100.00
53719;BME280;39616;48.872;9.390;2023-02-15T00:55:46;99687.13;;;-2.77;100.00
53719;BME280;39616;48.872;9.390;2023-02-15T00:58:16;99686.56;;;-2.87;100.00
53719;BME280;39616;48.872;9.390;2023-02-15T01:00:47;99689.69;;;-2.83;100.00
53719;BME280;39616;48.872;9.390;2023-02-15T01:03:19;99686.03;;;-2.82;100.00
53719;BME280;39616;48.872;9.390;2023-02-15T01:05:49;99684.84;;;-2.80;100.00
53719;BME280;39616;48.872;9.390;2023-02-15T01:08:20;99686.31;;;-2.77;100.00
53719;BME280;39616;48.872;9.390;2023-02-15T01:10:50;99673.22;;;-2.79;100.00
53719;BME280;39616;48.872;9.390;2023-02-15T01:13:20;99675.16;;;-2.73;100.00
53719;BME280;39616;48.872;9.390;2023-02-15T01:15:54;99671.03;;;-2.75;100.00
53719;BME280;39616;48.872;9.390;2023-02-15T01:18:25;99674.38;;;-2.81;100.00
53719;BME280;39616;48.872;9.390;2023-02-15T01:20:56;99677.16;;;-2.75;100.00
53719;BME280;39616;48.872;9.390;2023-02-15T01:23:26;99675.41;;;-2.82;100.00
53719;BME280;39616;48.872;9.390;2023-02-15T01:26:01;99674.81;;;-2.93;100.00
53719;BME280;39616;48.872;9.390;2023-02-15T01:28:31;99674.47;;;-2.89;100.00
53719;BME280;39616;48.872;9.390;2023-02-15T01:31:07;99670.97;;;-2.90;100.00
53719;BME280;39616;48.872;9.390;2023-02-15T01:33:38;99671.59;;;-2.88;100.00
53719;BME280;39616;48.872;9.390;2023-02-15T01:36:09;99667.31;;;-2.89;100.00
53719;BME280;39616;48.872;9.390;2023-02-15T01:38:40;99673.44;;;-2.88;100.00
53719;BME280;39616;48.872;9.390;2023-02-15T01:41:10;99671.13;;;-2.92;100.00
53719;BME280;39616;48.872;9.390;2023-02-15T01:43:53;99667.66;;;-2.92;100.00
53719;BME280;39616;48.872;9.390;2023-02-15T01:46:37;99674.63;;;-2.91;100.00
53719;BME280;39616;48.872;9.390;2023-02-15T01:49:14;99676.09;;;-2.88;100.00
53719;BME280;39616;48.872;9.390;2023-02-15T01:51:46;99665.66;;;-2.90;100.00
53719;BME280;39616;48.872;9.390;2023-02-15T01:54:21;99669.63;;;-2.86;100.00
53719;BME280;39616;48.872;9.390;2023-02-15T01:56:59;99663.78;;;-2.81;100.00
53719;BME280;39616;48.872;9.390;2023-02-15T01:59:32;99668.06;;;-2.80;100.00
53719;BME280;39616;48.872;9.390;2023-02-15T02:02:05;99669.28;;;-2.83;100.00
53719;BME280;39616;48.872;9.390;2023-02-15T02:04:52;99666.56;;;-2.98;100.00
53719;BME280;39616;48.872;9.390;2023-02-15T02:07:27;99660.63;;;-3.08;100.00
53719;BME280;39616;48.872;9.390;2023-02-15T02:09:57;99665.00;;;-3.15;100.00
53719;BME280;39616;48.872;9.390;2023-02-15T02:12:28;99655.59;;;-3.26;100.00
53719;BME280;39616;48.872;9.390;2023-02-15T02:14:58;99660.56;;;-3.23;100.00
53719;BME280;39616;48.872;9.390;2023-02-15T02:31:56;99639.03;;;-3.28;100.00
53719;BME280;39616;48.872;9.390;2023-02-15T02:34:42;99636.56;;;-3.29;100.00
53719;BME280;39616;48.872;9.390;2023-02-15T02:37:34;99633.72;;;-3.28;100.00
53719;BME280;39616;48.872;9.390;2023-02-15T02:42:43;99627.72;;;-3.22;100.00
53719;BME280;39616;48.872;9.390;2023-02-15T02:45:24;99634.31;;;-3.18;100.00
53719;BME280;39616;48.872;9.390;2023-02-15T02:50:58;99640.34;;;-3.24;100.00
53719;BME280;39616;48.872;9.390;2023-02-15T02:53:30;99637.31;;;-3.21;100.00
53719;BME280;39616;48.872;9.390;2023-02-15T02:56:21;99638.28;;;-3.13;100.00
53719;BME280;39616;48.872;9.390;2023-02-15T02:58:58;99644.88;;;-3.09;100.00
53719;BME280;39616;48.872;9.390;2023-02-15T03:01:37;99649.13;;;-3.00;100.00
53719;BME280;39616;48.872;9.390;2023-02-15T03:04:16;99646.00;;;-3.04;100.00
53719;BME280;39616;48.872;9.390;2023-02-15T03:07:06;99645.66;;;-3.01;100.00
53719;BME280;39616;48.872;9.390;2023-02-15T03:09:46;99639.94;;;-3.12;100.00
53719;BME280;39616;48.872;9.390;2023-02-15T03:12:21;99646.81;;;-3.26;100.00
53719;BME280;39616;48.872;9.390;2023-02-15T03:14:55;99630.78;;;-3.33;100.00
53719;BME280;39616;48.872;9.390;2023-02-15T03:17:29;99642.06;;;-3.39;100.00
53719;BME280;39616;48.872;9.390;2023-02-15T03:20:06;99637.47;;;-3.45;100.00
53719;BME280;39616;48.872;9.390;2023-02-15T03:22:42;99631.84;;;-3.42;100.00
53719;BME280;39616;48.872;9.390;2023-02-15T03:25:21;99635.31;;;-3.42;100.00
53719;BME280;39616;48.872;9.390;2023-02-15T03:27:55;99635.13;;;-3.40;100.00
53719;BME280;39616;48.872;9.390;2023-02-15T03:30:29;99634.31;;;-3.41;100.00
53719;BME280;39616;48.872;9.390;2023-02-15T03:33:01;99633.28;;;-3.40;100.00
53719;BME280;39616;48.872;9.390;2023-02-15T03:35:40;99629.94;;;-3.33;100.00
53719;BME280;39616;48.872;9.390;2023-02-15T03:38:17;99630.78;;;-3.33;100.00
53719;BME280;39616;48.872;9.390;2023-02-15T03:40:53;99621.22;;;-3.42;100.00
53719;BME280;39616;48.872;9.390;2023-02-15T03:43:46;99627.84;;;-3.38;100.00
53719;BME280;39616;48.872;9.390;2023-02-15T03:46:46;99635.13;;;-3.40;100.00
53719;BME280;39616;48.872;9.390;2023-02-15T03:49:24;99616.91;;;-3.43;100.00
53719;BME280;39616;48.872;9.390;2023-02-15T03:51:58;99615.19;;;-3.36;100.00
53719;BME280;39616;48.872;9.390;2023-02-15T03:54:31;99608.72;;;-3.33;100.00
53719;BME280;39616;48.872;9.390;2023-02-15T03:57:21;99613.38;;;-3.35;100.00
53719;BME280;39616;48.872;9.390;2023-02-15T04:00:19;99625.69;;;-3.43;100.00
53719;BME280;39616;48.872;9.390;2023-02-15T04:03:21;99631.31;;;-3.37;100.00
53719;BME280;39616;48.872;9.390;2023-02-15T04:05:53;99635.38;;;-3.58;100.00
53719;BME280;39616;48.872;9.390;2023-02-15T04:08:23;99629.00;;;-3.80;100.00
53719;BME280;39616;48.872;9.390;2023-02-15T04:11:13;99636.34;;;-3.90;100.00
53719;BME280;39616;48.872;9.390;2023-02-15T04:13:44;99637.66;;;-3.86;100.00
53719;BME280;39616;48.872;9.390;2023-02-15T04:16:14;99645.63;;;-3.86;100.00
53719;BME280;39616;48.872;9.390;2023-02-15T04:18:44;99635.31;;;-3.81;100.00
53719;BME280;39616;48.872;9.390;2023-02-15T04:21:33;99640.09;;;-3.76;100.00
53719;BME280;39616;48.872;9.390;2023-02-15T04:24:22;99638.75;;;-3.72;100.00
53719;BME280;39616;48.872;9.390;2023-02-15T04:27:11;99637.94;;;-3.73;100.00
53719;BME280;39616;48.872;9.390;2023-02-15T04:29:41;99630.69;;;-3.79;100.00
53719;BME280;39616;48.872;9.390;2023-02-15T04:32:11;99624.25;;;-3.93;100.00
53719;BME280;39616;48.872;9.390;2023-02-15T04:34:41;99626.59;;;-3.98;100.00
53719;BME280;39616;48.872;9.390;2023-02-15T04:37:12;99626.59;;;-3.98;100.00
53719;BME280;39616;48.872;9.390;2023-02-15T04:39:42;99625.28;;;-4.02;100.00
53719;BME280;39616;48.872;9.390;2023-02-15T04:42:12;99628.78;;;-4.01;100.00
53719;BME280;39616;48.872;9.390;2023-02-15T04:44:43;99626.47;;;-4.04;100.00
53719;BME280;39616;48.872;9.390;2023-02-15T04:47:13;99628.94;;;-4.03;100.00
53719;BME280;39616;48.872;9.390;2023-02-15T04:49:44;99624.13;;;-3.99;100.00
53719;BME280;39616;48.872;9.390;2023-02-15T04:52:14;99625.75;;;-3.98;100.00
53719;BME280;39616;48.872;9.390;2023-02-15T04:54:45;99620.47;;;-3.98;100.00
53719;BME280;39616;48.872;9.390;2023-02-15T04:57:15;99618.63;;;-3.98;100.00
53719;BME280;39616;48.872;9.390;2023-02-15T04:59:46;99614.16;;;-3.89;100.00
53719;BME280;39616;48.872;9.390;2023-02-15T05:02:16;99617.81;;;-3.90;100.00
53719;BME280;39616;48.872;9.390;2023-02-15T05:04:46;99616.94;;;-3.91;100.00
53719;BME280;39616;48.872;9.390;2023-02-15T05:07:16;99613.16;;;-3.88;100.00
53719;BME280;39616;48.872;9.390;2023-02-15T05:09:47;99613.16;;;-3.88;100.00
53719;BME280;39616;48.872;9.390;2023-02-15T05:12:18;99604.84;;;-3.85;100.00
53719;BME280;39616;48.872;9.390;2023-02-15T05:14:48;99603.69;;;-3.82;100.00
53719;BME280;39616;48.872;9.390;2023-02-15T05:17:18;99594.25;;;-3.85;100.00
53719;BME280;39616;48.872;9.390;2023-02-15T05:19:48;99596.41;;;-3.89;100.00
53719;BME280;39616;48.872;9.390;2023-02-15T05:22:19;99601.06;;;-3.91;100.00
53719;BME280;39616;48.872;9.390;2023-02-15T05:24:49;99596.59;;;-3.90;100.00
53719;BME280;39616;48.872;9.390;2023-02-15T05:27:37;99598.59;;;-3.92;100.00
53719;BME280;39616;48.872;9.390;2023-02-15T05:30:26;99607.88;;;-3.96;100.00
53719;BME280;39616;48.872;9.390;2023-02-15T05:32:57;99604.59;;;-4.06;100.00
53719;BME280;39616;48.872;9.390;2023-02-15T05:35:27;99611.53;;;-4.05;100.00
53719;BME280;39616;48.872;9.390;2023-02-15T05:37:57;99608.06;;;-4.06;100.00
53719;BME280;39616;48.872;9.390;2023-02-15T05:40:28;99618.38;;;-4.11;100.00
53719;BME280;39616;48.872;9.390;2023-02-15T05:42:58;99607.59;;;-4.09;100.00
53719;BME280;39616;48.872;9.390;2023-02-15T05:45:28;99619.84;;;-4.08;100.00
53719;BME280;39616;48.872;9.390;2023-02-15T05:47:59;99615.09;;;-4.29;100.00
53719;BME280;39616;48.872;9.390;2023-02-15T05:50:29;99610.94;;;-4.24;100.00
53719;BME280;39616;48.872;9.390;2023-02-15T05:52:59;99609.28;;;-4.25;100.00
53719;BME280;39616;48.872;9.390;2023-02-15T05:55:30;99606.59;;;-4.08;100.00
53719;BME280;39616;48.872;9.390;2023-02-15T05:58:00;99606.50;;;-3.84;100.00
53719;BME280;39616;48.872;9.390;2023-02-15T06:00:30;99610.19;;;-3.93;100.00
53719;BME280;39616;48.872;9.390;2023-02-15T06:03:01;99616.84;;;-3.97;100.00
53719;BME280;39616;48.872;9.390;2023-02-15T06:05:31;99623.22;;;-3.83;100.00
53719;BME280;39616;48.872;9.390;2023-02-15T06:08:01;99623.03;;;-3.74;100.00
53719;BME280;39616;48.872;9.390;2023-02-15T06:10:32;99623.25;;;-3.92;100.00
53719;BME280;39616;48.872;9.390;2023-02-15T06:13:02;99622.78;;;-3.95;100.00
53719;BME280;39616;48.872;9.390;2023-02-15T06:15:33;99623.44;;;-3.93;100.00
53719;BME280;39616;48.872;9.390;2023-02-15T06:18:03;99626.59;;;-3.98;100.00
53719;BME280;39616;48.872;9.390;2023-02-15T06:20:34;99623.63;;;-4.03;100.00
53719;BME280;39616;48.872;9.390;2023-02-15T06:23:04;99627.66;;;-4.15;100.00
53719;BME280;39616;48.872;9.390;2023-02-15T06:25:34;99636.75;;;-4.18;100.00
53719;BME280;39616;48.872;9.390;2023-02-15T06:28:04;99629.47;;;-4.16;100.00
53719;BME280;39616;48.872;9.390;2023-02-15T06:30:35;99632.94;;;-4.15;100.00
53719;BME280;39616;48.872;9.390;2023-02-15T06:33:05;99635.25;;;-4.20;100.00
53719;BME280;39616;48.872;9.390;2023-02-15T06:35:35;99637.25;;;-4.14;100.00
53719;BME280;39616;48.872;9.390;2023-02-15T06:38:06;99626.47;;;-4.13;100.00
53719;BME280;39616;48.872;9.390;2023-02-15T06:40:36;99635.09;;;-4.10;100.00
53719;BME280;39616;48.872;9.390;2023-02-15T06:43:06;99637.72;;;-4.10;100.00
53719;BME280;39616;48.872;9.390;2023-02-15T06:45:36;99639.22;;;-4.08;100.00
53719;BME280;39616;48.872;9.390;2023-02-15T06:48:07;99638.72;;;-4.03;100.00
53719;BME280;39616;48.872;9.390;2023-02-15T06:50:38;99638.03;;;-3.97;100.00
53719;BME280;39616;48.872;9.390;2023-02-15T06:53:08;99646.66;;;-4.03;100.00
53719;BME280;39616;48.872;9.390;2023-02-15T06:55:38;99644.34;;;-4.06;100.00
53719;BME280;39616;48.872;9.390;2023-02-15T06:58:09;99652.25;;;-3.98;100.00
53719;BME280;39616;48.872;9.390;2023-02-15T07:00:39;99650.63;;;-3.99;100.00
53719;BME280;39616;48.872;9.390;2023-02-15T07:03:13;99652.25;;;-3.90;100.00
53719;BME280;39616;48.872;9.390;2023-02-15T07:05:43;99655.72;;;-3.90;100.00
53719;BME280;39616;48.872;9.390;2023-02-15T07:08:14;99658.03;;;-3.86;100.00
53719;BME280;39616;48.872;9.390;2023-02-15T07:10:46;99656.63;;;-3.66;100.00
53719;BME280;39616;48.872;9.390;2023-02-15T07:13:16;99656.34;;;-3.40;100.00
53719;BME280;39616;48.872;9.390;2023-02-15T07:15:47;99657.97;;;-3.31;100.00
53719;BME280;39616;48.872;9.390;2023-02-15T07:18:18;99644.31;;;-3.28;100.00
53719;BME280;39616;48.872;9.390;2023-02-15T07:20:49;99652.84;;;-3.09;100.00
53719;BME280;39616;48.872;9.390;2023-02-15T07:23:22;99649.06;;;-2.92;100.00
53719;BME280;39616;48.872;9.390;2023-02-15T07:25:59;99651.31;;;-2.81;100.00
53719;BME280;39616;48.872;9.390;2023-02-15T07:28:30;99661.13;;;-2.81;100.00
53719;BME280;39616;48.872;9.390;2023-02-15T07:31:01;99670.03;;;-2.74;100.00
53719;BME280;39616;48.872;9.390;2023-02-15T07:33:32;99661.56;;;-2.55;100.00
53719;BME280;39616;48.872;9.390;2023-02-15T07:36:04;99666.53;;;-2.52;100.00
53719;BME280;39616;48.872;9.390;2023-02-15T07:38:40;99661.56;;;-2.55;100.00
53719;BME280;39616;48.872;9.390;2023-02-15T07:41:13;99662.03;;;-2.51;100.00
53719;BME280;39616;48.872;9.390;2023-02-15T07:43:44;99662.38;;;-2.54;100.00
53719;BME280;39616;48.872;9.390;2023-02-15T07:46:16;99661.72;;;-2.19;100.00
53719;BME280;39616;48.872;9.390;2023-02-15T07:48:47;99655.97;;;-1.92;100.00
53719;BME280;39616;48.872;9.390;2023-02-15T07:51:17;99655.50;;;-1.52;100.00
53719;BME280;39616;48.872;9.390;2023-02-15T07:53:47;99643.91;;;-1.44;100.00
53719;BME280;39616;48.872;9.390;2023-02-15T07:56:18;99642.34;;;-1.02;100.00
53719;BME280;39616;48.872;9.390;2023-02-15T07:58:48;99640.53;;;-0.80;95.29
53719;BME280;39616;48.872;9.390;2023-02-15T08:03:54;99645.53;;;-0.92;96.42
53719;BME280;39616;48.872;9.390;2023-02-15T08:06:27;99637.00;;;-1.24;95.42
53719;BME280;39616;48.872;9.390;2023-02-15T08:08:58;99642.03;;;-0.92;97.36
53719;BME280;39616;48.872;9.390;2023-02-15T08:11:30;99638.06;;;-0.32;96.87
53719;BME280;39616;48.872;9.390;2023-02-15T08:14:14;99627.88;;;-0.22;91.53
53719;BME280;39616;48.872;9.390;2023-02-15T08:16:46;99637.25;;;0.02;89.46
53719;BME280;39616;48.872;9.390;2023-02-15T08:19:26;99636.22;;;0.03;89.52
53719;BME280;39616;48.872;9.390;2023-02-15T08:22:03;99634.81;;;0.42;87.70
53719;BME280;39616;48.872;9.390;2023-02-15T08:24:35;99644.78;;;0.27;87.54
53719;BME280;39616;48.872;9.390;2023-02-15T08:27:09;99640.56;;;0.45;85.53
53719;BME280;39616;48.872;9.390;2023-02-15T08:29:40;99640.56;;;0.11;87.82
53719;BME280;39616;48.872;9.390;2023-02-15T08:32:12;99641.16;;;0.06;88.64
53719;BME280;39616;48.872;9.390;2023-02-15T08:34:43;99641.66;;;0.16;89.05
53719;BME280;39616;48.872;9.390;2023-02-15T08:37:13;99646.94;;;0.51;87.20
53719;BME280;39616;48.872;9.390;2023-02-15T08:39:43;99641.69;;;0.71;87.68
53719;BME280;39616;48.872;9.390;2023-02-15T08:42:15;99638.28;;;1.04;89.88
53719;BME280;39616;48.872;9.390;2023-02-15T08:44:45;99636.88;;;1.54;82.72
53719;BME280;39616;48.872;9.390;2023-02-15T08:47:16;99646.75;;;1.27;86.09
53719;BME280;39616;48.872;9.390;2023-02-15T08:49:46;99638.75;;;1.67;82.52
53719;BME280;39616;48.872;9.390;2023-02-15T08:52:17;99637.91;;;1.47;83.10
53719;BME280;39616;48.872;9.390;2023-02-15T08:54:47;99641.41;;;1.54;83.08
53719;BME280;39616;48.872;9.390;2023-02-15T08:57:18;99642.47;;;1.66;83.07
53719;BME280;39616;48.872;9.390;2023-02-15T08:59:48;99638.28;;;2.10;82.24
53719;BME280;39616;48.872;9.390;2023-02-15T09:02:19;99632.50;;;2.13;81.86
53719;BME280;39616;48.872;9.390;2023-02-15T09:04:49;99626.75;;;2.16;81.04
53719;BME280;39616;48.872;9.390;2023-02-15T09:07:21;99626.69;;;3.19;77.35
53719;BME280;39616;48.872;9.390;2023-02-15T09:09:52;99623.06;;;3.07;75.56
53719;BME280;39616;48.872;9.390;2023-02-15T09:12:22;99627.00;;;2.98;79.30
53719;BME280;39616;48.872;9.390;2023-02-15T09:14:52;99620.84;;;3.29;74.63
53719;BME280;39616;48.872;9.390;2023-02-15T09:17:22;99612.06;;;3.47;75.05
53719;BME280;39616;48.872;9.390;2023-02-15T09:19:53;99608.38;;;3.66;75.48
53719;BME280;39616;48.872;9.390;2023-02-15T09:22:23;99598.59;;;4.15;73.97
53719;BME280;39616;48.872;9.390;2023-02-15T09:24:53;99591.16;;;4.35;71.19
53719;BME280;39616;48.872;9.390;2023-02-15T09:27:24;99584.88;;;5.02;69.64
53719;BME280;39616;48.872;9.390;2023-02-15T09:29:54;99588.47;;;5.38;68.54
53719;BME280;39616;48.872;9.390;2023-02-15T09:32:25;99578.22;;;4.74;69.60
53719;BME280;39616;48.872;9.390;2023-02-15T09:34:55;99582.09;;;4.30;73.13
53719;BME280;39616;48.872;9.390;2023-02-15T09:37:25;99579.03;;;4.75;71.52
53719;BME280;39616;48.872;9.390;2023-02-15T09:39:56;99588.63;;;4.71;70.15
53719;BME280;39616;48.872;9.390;2023-02-15T09:45:37;99585.38;;;5.22;69.31
53719;BME280;39616;48.872;9.390;2023-02-15T09:48:36;99583.66;;;5.28;68.88
53719;BME280;39616;48.872;9.390;2023-02-15T09:51:15;99577.97;;;4.94;71.95
53719;BME280;39616;48.872;9.390;2023-02-15T09:56:48;99567.69;;;6.56;66.80
53719;BME280;39616;48.872;9.390;2023-02-15T10:02:32;99555.91;;;7.91;62.69
53719;BME280;39616;48.872;9.390;2023-02-15T10:11:19;99554.47;;;6.42;64.37
53719;BME280;39616;48.872;9.390;2023-02-15T10:14:37;99556.41;;;6.59;65.78
53719;BME280;39616;48.872;9.390;2023-02-15T10:20:23;99544.44;;;7.29;62.77
53719;BME280;39616;48.872;9.390;2023-02-15T10:26:18;99535.69;;;7.21;63.53
53719;BME280;39616;48.872;9.390;2023-02-15T10:28:50;99538.19;;;6.94;64.59
53719;BME280;39616;48.872;9.390;2023-02-15T10:31:28;99542.00;;;7.27;63.56
53719;BME280;39616;48.872;9.390;2023-02-15T10:34:15;99535.22;;;7.41;63.53
53719;BME280;39616;48.872;9.390;2023-02-15T10:40:08;99536.25;;;6.61;67.17
53719;BME280;39616;48.872;9.390;2023-02-15T10:45:36;99528.81;;;5.99;71.38
53719;BME280;39616;48.872;9.390;2023-02-15T10:51:08;99525.06;;;5.77;71.52
53719;BME280;39616;48.872;9.390;2023-02-15T10:57:16;99521.28;;;6.82;69.72
53719;BME280;39616;48.872;9.390;2023-02-15T11:08:19;99491.84;;;8.09;64.29
53719;BME280;39616;48.872;9.390;2023-02-15T11:10:58;99484.31;;;8.55;63.44
53719;BME280;39616;48.872;9.390;2023-02-15T11:13:38;99486.13;;;8.27;64.35
53719;BME280;39616;48.872;9.390;2023-02-15T11:16:21;99488.63;;;8.34;64.09
53719;BME280;39616;48.872;9.390;2023-02-15T11:19:03;99496.44;;;7.86;66.17
53719;BME280;39616;48.872;9.390;2023-02-15T11:22:05;99483.88;;;8.19;64.75
53719;BME280;39616;48.872;9.390;2023-02-15T11:24:41;99488.16;;;7.93;66.58
53719;BME280;39616;48.872;9.390;2023-02-15T11:27:19;99478.31;;;7.26;68.04
53719;BME280;39616;48.872;9.390;2023-02-15T11:29:58;99480.22;;;7.86;66.56
53719;BME280;39616;48.872;9.390;2023-02-15T11:32:38;99483.38;;;7.78;68.02
53719;BME280;39616;48.872;9.390;2023-02-15T11:37:44;99480.44;;;7.24;70.52
53719;BME280;39616;48.872;9.390;2023-02-15T11:40:21;99486.47;;;6.97;70.98
53719;BME280;39616;48.872;9.390;2023-02-15T11:43:01;99476.56;;;7.03;71.77
53719;BME280;39616;48.872;9.390;2023-02-15T11:45:34;99484.53;;;6.93;72.47
53719;BME280;39616;48.872;9.390;2023-02-15T11:48:10;99484.63;;;7.15;72.29
53719;BME280;39616;48.872;9.390;2023-02-15T11:50:42;99471.31;;;7.47;71.30
53719;BME280;39616;48.872;9.390;2023-02-15T11:53:15;99477.84;;;7.90;71.13
53719;BME280;39616;48.872;9.390;2023-02-15T11:55:48;99480.88;;;7.55;71.44
53719;BME280;39616;48.872;9.390;2023-02-15T11:58:41;99489.06;;;7.43;71.28
53719;BME280;39616;48.872;9.390;2023-02-15T12:03:48;99475.63;;;7.65;72.16
53719;BME280;39616;48.872;9.390;2023-02-15T12:06:38;99478.38;;;7.31;73.01
53719;BME280;39616;48.872;9.390;2023-02-15T12:09:31;99482.59;;;6.76;75.40
53719;BME280;39616;48.872;9.390;2023-02-15T12:12:32;99478.31;;;7.26;75.78
53719;BME280;39616;48.872;9.390;2023-02-15T12:15:08;99473.53;;;7.50;75.19
53719;BME280;39616;48.872;9.390;2023-02-15T12:17:48;99466.78;;;7.31;73.97
53719;BME280;39616;48.872;9.390;2023-02-15T12:23:14;99460.53;;;7.47;75.59
53719;BME280;39616;48.872;9.390;2023-02-15T12:28:25;99450.59;;;7.31;75.97
53719;BME280;39616;48.872;9.390;2023-02-15T12:30:57;99459.50;;;6.97;77.40
53719;BME280;39616;48.872;9.390;2023-02-15T12:33:31;99458.94;;;6.78;78.80
53719;BME280;39616;48.872;9.390;2023-02-15T12:36:16;99451.06;;;7.44;77.54
53719;BME280;39616;48.872;9.390;2023-02-15T12:41:56;99446.69;;;7.60;75.79
53719;BME280;39616;48.872;9.390;2023-02-15T12:44:32;99448.59;;;7.82;74.67
53719;BME280;39616;48.872;9.390;2023-02-15T12:47:19;99449.63;;;7.59;76.00
53719;BME280;39616;48.872;9.390;2023-02-15T12:50:31;99433.63;;;7.96;75.18
53719;BME280;39616;48.872;9.390;2023-02-15T12:53:16;99433.78;;;7.84;74.73
53719;BME280;39616;48.872;9.390;2023-02-15T12:58:30;99434.44;;;7.96;74.59
53719;BME280;39616;48.872;9.390;2023-02-15T13:01:21;99421.94;;;8.12;74.08
53719;BME280;39616;48.872;9.390;2023-02-15T13:06:33;99420.22;;;8.06;73.69
53719;BME280;39616;48.872;9.390;2023-02-15T13:09:35;99415.38;;;8.30;74.28
53719;BME280;39616;48.872;9.390;2023-02-15T13:12:17;99413.84;;;8.39;73.64
53719;BME280;39616;48.872;9.390;2023-02-15T13:14:51;99410.91;;;8.41;72.27
53719;BME280;39616;48.872;9.390;2023-02-15T13:17:26;99403.53;;;8.09;74.36
53719;BME280;39616;48.872;9.390;2023-02-15T13:20:13;99397.06;;;8.10;74.74
53719;BME280;39616;48.872;9.390;2023-02-15T13:22:46;99391.53;;;8.27;73.60
53719;BME280;39616;48.872;9.390;2023-02-15T13:28:06;99383.41;;;8.49;70.94
53719;BME280;39616;48.872;9.390;2023-02-15T13:30:45;99380.91;;;8.75;70.45
53719;BME280;39616;48.872;9.390;2023-02-15T13:36:01;99371.44;;;8.72;70.34
53719;BME280;39616;48.872;9.390;2023-02-15T13:41:40;99359.97;;;8.92;68.57
53719;BME280;39616;48.872;9.390;2023-02-15T13:50:25;99351.06;;;8.97;67.35
53719;BME280;39616;48.872;9.390;2023-02-15T13:55:54;99356.38;;;8.81;67.28
53719;BME280;39616;48.872;9.390;2023-02-15T14:01:10;99346.38;;;8.87;66.21
53719;BME280;39616;48.872;9.390;2023-02-15T14:03:44;99345.84;;;8.85;66.58
53719;BME280;39616;48.872;9.390;2023-02-15T14:06:46;99343.22;;;8.95;66.83
53719;BME280;39616;48.872;9.390;2023-02-15T14:20:56;99330.13;;;9.29;65.21
53719;BME280;39616;48.872;9.390;2023-02-15T14:26:10;99344.25;;;9.36;64.67
53719;BME280;39616;48.872;9.390;2023-02-15T14:28:56;99339.38;;;9.38;64.39
53719;BME280;39616;48.872;9.390;2023-02-15T14:31:34;99335.34;;;9.41;64.06
53719;BME280;39616;48.872;9.390;2023-02-15T14:34:18;99345.34;;;9.40;64.61
53719;BME280;39616;48.872;9.390;2023-02-15T14:36:51;99335.91;;;9.48;64.87
53719;BME280;39616;48.872;9.390;2023-02-15T14:39:31;99345.34;;;9.46;65.03
53719;BME280;39616;48.872;9.390;2023-02-15T14:42:31;99341.56;;;9.41;65.56
53719;BME280;39616;48.872;9.390;2023-02-15T14:47:44;99346.91;;;9.31;66.83
53719;BME280;39616;48.872;9.390;2023-02-15T14:56:26;99353.25;;;9.05;66.89
53719;BME280;39616;48.872;9.390;2023-02-15T14:58:57;99338.69;;;9.06;67.32
53719;BME280;39616;48.872;9.390;2023-02-15T15:01:35;99344.09;;;9.06;67.59
53719;BME280;39616;48.872;9.390;2023-02-15T15:04:14;99332.69;;;8.99;68.08
53719;BME280;39616;48.872;9.390;2023-02-15T15:07:14;99336.44;;;8.98;68.46
53719;BME280;39616;48.872;9.390;2023-02-15T15:10:04;99339.66;;;8.94;68.52
53719;BME280;39616;48.872;9.390;2023-02-15T15:12:56;99333.09;;;8.80;69.17
53719;BME280;39616;48.872;9.390;2023-02-15T15:18:06;99330.34;;;8.75;69.73
53719;BME280;39616;48.872;9.390;2023-02-15T15:20:48;99336.31;;;8.77;70.13
53719;BME280;39616;48.872;9.390;2023-02-15T15:25:56;99338.69;;;8.68;70.43
53719;BME280;39616;48.872;9.390;2023-02-15T15:31:04;99337.94;;;8.41;71.17
53719;BME280;39616;48.872;9.390;2023-02-15T15:37:05;99325.06;;;8.26;72.14
53719;BME280;39616;48.872;9.390;2023-02-15T15:40:10;99325.78;;;8.16;71.98
53719;BME280;39616;48.872;9.390;2023-02-15T15:42:50;99331.34;;;8.05;72.30
53719;BME280;39616;48.872;9.390;2023-02-15T15:45:50;99343.38;;;7.92;73.39
53719;BME280;39616;48.872;9.390;2023-02-15T15:48:37;99341.38;;;7.82;74.18
53719;BME280;39616;48.872;9.390;2023-02-15T15:51:20;99344.03;;;7.77;74.45
53719;BME280;39616;48.872;9.390;2023-02-15T15:53:53;99343.41;;;7.70;74.58
53719;BME280;39616;48.872;9.390;2023-02-15T15:56:34;99343.84;;;7.62;75.15
53719;BME280;39616;48.872;9.390;2023-02-15T15:59:07;99341.47;;;7.43;76.32